createdAt,value
2017-11-26T00:01:18.620Z,32.03
2017-11-26T00:03:46.935Z,29.97
2017-11-26T00:06:16.010Z,31.47
2017-11-26T00:08:44.553Z,32.20
2017-11-26T00:11:12.890Z,32.80
2017-11-26T00:13:41.974Z,32.00
2017-11-26T00:16:10.295Z,30.90
2017-11-26T00:18:38.620Z,29.77
2017-11-26T00:21:06.930Z,32.83
2017-11-26T00:23:35.256Z,31.40
2017-11-26T00:26:03.559Z,32.77
2017-11-26T00:28:31.994Z,29.60
2017-11-26T00:31:00.308Z,31.20
2017-11-26T00:33:28.623Z,28.27
2017-11-26T00:35:57.032Z,29.60
2017-11-26T00:38:25.351Z,28.90
2017-11-26T00:40:53.690Z,28.80
2017-11-26T00:43:22.060Z,27.57
2017-11-26T00:45:50.391Z,24.90
2017-11-26T00:48:18.751Z,28.40
2017-11-26T00:50:47.179Z,30.27
2017-11-26T00:53:15.564Z,27.93
2017-11-26T00:55:43.886Z,27.30
2017-11-26T00:58:12.275Z,28.77
2017-11-26T01:00:40.696Z,28.50
2017-11-26T01:03:09.091Z,27.60
2017-11-26T01:05:37.502Z,24.50
2017-11-26T01:08:05.812Z,27.47
2017-11-26T01:10:34.963Z,24.47
2017-11-26T01:13:03.331Z,24.73
2017-11-26T01:15:31.709Z,22.40
2017-11-26T01:18:00.064Z,22.97
2017-11-26T01:20:28.452Z,23.30
2017-11-26T01:22:56.941Z,21.47
2017-11-26T01:25:25.504Z,21.10
2017-11-26T01:27:53.878Z,19.40
2017-11-26T01:30:23.088Z,21.33
2017-11-26T01:32:51.396Z,19.90
2017-11-26T01:35:19.755Z,21.33
2017-11-26T01:37:48.163Z,20.17
2017-11-26T01:40:16.568Z,21.33
2017-11-26T01:42:44.992Z,21.90
2017-11-26T01:45:13.367Z,21.67
2017-11-26T01:47:41.717Z,22.40
2017-11-26T01:50:10.904Z,24.03
2017-11-26T01:52:39.300Z,21.77
2017-11-26T01:55:08.507Z,22.30
2017-11-26T01:57:36.813Z,22.10
2017-11-26T02:00:05.141Z,20.77
2017-11-26T02:02:34.218Z,19.87
2017-11-26T02:05:02.534Z,21.10
2017-11-26T02:07:31.606Z,20.73
2017-11-26T02:09:59.924Z,20.87
2017-11-26T02:12:28.288Z,19.03
2017-11-26T02:14:56.620Z,21.10
2017-11-26T02:17:24.939Z,20.30
2017-11-26T02:19:54.086Z,19.10
2017-11-26T02:22:22.388Z,19.60
2017-11-26T02:24:50.764Z,19.10
2017-11-26T02:27:19.159Z,18.77
2017-11-26T02:29:48.267Z,18.07
2017-11-26T02:32:34.544Z,17.50
2017-11-26T02:35:21.368Z,17.93
2017-11-26T02:37:50.452Z,16.83
2017-11-26T02:40:19.536Z,16.67
2017-11-26T02:42:47.909Z,17.83
2017-11-26T02:45:16.220Z,16.30
2017-11-26T02:47:45.362Z,17.90
2017-11-26T02:50:13.695Z,17.97
2017-11-26T02:52:42.018Z,20.07
2017-11-26T02:55:10.329Z,17.33
2017-11-26T02:57:39.420Z,17.60
2017-11-26T03:00:07.751Z,16.30
2017-11-26T03:02:36.057Z,12.63
2017-11-26T03:05:04.375Z,11.07
2017-11-26T03:07:33.470Z,12.00
2017-11-26T03:10:01.791Z,11.37
2017-11-26T03:12:30.107Z,10.20
2017-11-26T03:14:59.192Z,11.50
2017-11-26T03:17:27.531Z,11.83
2017-11-26T03:19:55.851Z,11.40
2017-11-26T03:22:24.167Z,11.47
2017-11-26T03:24:52.508Z,12.37
2017-11-26T03:27:20.858Z,12.67
2017-11-26T03:29:49.209Z,11.63
2017-11-26T03:32:17.542Z,10.77
2017-11-26T03:34:45.878Z,12.10
2017-11-26T03:37:14.203Z,11.50
2017-11-26T03:39:43.337Z,13.20
2017-11-26T03:42:11.679Z,13.00
2017-11-26T03:44:40.805Z,13.17
2017-11-26T03:47:09.135Z,12.30
2017-11-26T03:49:37.489Z,12.37
2017-11-26T03:52:05.806Z,10.87
2017-11-26T03:54:34.955Z,11.60
2017-11-26T03:57:03.320Z,11.13
2017-11-26T03:59:31.631Z,10.43
2017-11-26T04:01:59.975Z,10.87
2017-11-26T04:04:28.321Z,11.13
2017-11-26T04:06:57.405Z,11.23
2017-11-26T04:09:25.719Z,11.17
2017-11-26T04:11:54.031Z,10.50
2017-11-26T04:14:22.338Z,10.10
2017-11-26T04:16:51.476Z,9.50
2017-11-26T04:19:19.785Z,8.97
2017-11-26T04:21:48.123Z,9.57
2017-11-26T04:24:16.426Z,9.07
2017-11-26T04:26:44.740Z,9.27
2017-11-26T04:29:13.064Z,9.20
2017-11-26T04:31:41.386Z,10.60
2017-11-26T04:34:09.695Z,9.23
2017-11-26T04:36:38.016Z,9.13
2017-11-26T04:39:06.357Z,11.20
2017-11-26T04:41:34.691Z,10.17
2017-11-26T04:44:02.990Z,9.13
2017-11-26T04:46:31.297Z,8.67
2017-11-26T04:48:59.599Z,8.50
2017-11-26T04:51:27.932Z,9.00
2017-11-26T04:53:56.995Z,8.77
2017-11-26T04:56:25.311Z,10.07
2017-11-26T04:58:54.423Z,9.23
2017-11-26T05:01:22.730Z,8.80
2017-11-26T05:03:51.039Z,9.13
2017-11-26T05:06:20.606Z,9.47
2017-11-26T05:08:48.934Z,9.60
2017-11-26T05:11:18.013Z,9.50
2017-11-26T05:13:51.239Z,9.90
2017-11-26T05:16:19.561Z,8.27
2017-11-26T05:18:47.882Z,9.47
2017-11-26T05:21:16.959Z,8.87
2017-11-26T05:23:45.295Z,9.50
2017-11-26T05:26:13.606Z,10.30
2017-11-26T05:28:41.930Z,9.37
2017-11-26T05:31:10.263Z,10.23
2017-11-26T05:33:38.577Z,10.60
2017-11-26T05:36:06.879Z,8.77
2017-11-26T05:38:35.207Z,9.87
2017-11-26T05:41:03.522Z,11.03
2017-11-26T05:43:31.844Z,10.00
2017-11-26T05:46:00.159Z,10.40
2017-11-26T05:48:28.470Z,11.10
2017-11-26T05:50:56.807Z,9.63
2017-11-26T05:53:25.887Z,9.53
2017-11-26T05:55:54.970Z,10.37
2017-11-26T05:58:23.291Z,9.07
2017-11-26T06:00:51.649Z,10.37
2017-11-26T06:03:19.979Z,10.83
2017-11-26T06:05:48.303Z,11.97
2017-11-26T06:08:16.607Z,12.27
2017-11-26T06:10:44.898Z,9.60
2017-11-26T06:13:13.217Z,10.27
2017-11-26T06:15:41.527Z,10.77
2017-11-26T06:18:09.847Z,10.73
2017-11-26T06:20:38.159Z,11.23
2017-11-26T06:23:07.245Z,12.67
2017-11-26T06:25:36.325Z,11.00
2017-11-26T06:28:04.640Z,10.97
2017-11-26T06:30:33.712Z,11.47
2017-11-26T06:33:02.035Z,11.27
2017-11-26T06:35:30.342Z,11.30
2017-11-26T06:37:58.654Z,13.17
2017-11-26T06:40:27.715Z,10.17
2017-11-26T06:42:56.049Z,12.67
2017-11-26T06:45:24.357Z,11.27
2017-11-26T06:47:52.675Z,11.60
2017-11-26T06:50:20.979Z,12.40
2017-11-26T06:52:49.303Z,12.03
2017-11-26T06:55:18.372Z,12.47
2017-11-26T06:57:46.690Z,14.67
2017-11-26T07:00:15.003Z,12.60
2017-11-26T07:02:43.311Z,13.07
2017-11-26T07:05:11.632Z,12.80
2017-11-26T07:07:39.963Z,11.60
2017-11-26T07:10:08.281Z,13.40
2017-11-26T07:12:36.601Z,12.70
2017-11-26T07:15:04.930Z,11.10
2017-11-26T07:17:33.269Z,12.20
2017-11-26T07:20:01.580Z,11.20
2017-11-26T07:22:29.928Z,11.40
2017-11-26T07:24:58.239Z,11.10
2017-11-26T07:27:26.555Z,11.80
2017-11-26T07:29:54.865Z,11.83
2017-11-26T07:32:23.181Z,12.37
2017-11-26T07:34:51.512Z,11.40
2017-11-26T07:37:19.838Z,12.90
2017-11-26T07:39:48.932Z,11.87
2017-11-26T07:42:17.256Z,10.97
2017-11-26T07:44:45.556Z,12.17
2017-11-26T07:47:13.862Z,10.73
2017-11-26T07:49:42.183Z,11.23
2017-11-26T07:52:10.487Z,13.27
2017-11-26T07:54:38.803Z,12.27
2017-11-26T07:57:07.906Z,12.90
2017-11-26T07:59:36.989Z,11.53
2017-11-26T08:02:06.063Z,12.57
2017-11-26T08:04:34.378Z,11.83
2017-11-26T08:07:03.450Z,11.83
2017-11-26T08:09:31.774Z,11.90
2017-11-26T08:12:00.065Z,11.43
2017-11-26T08:14:28.370Z,11.43
2017-11-26T08:16:56.677Z,10.80
2017-11-26T08:19:25.759Z,11.50
2017-11-26T08:21:54.061Z,10.53
2017-11-26T08:24:22.401Z,12.00
2017-11-26T08:26:50.723Z,10.57
2017-11-26T08:29:19.043Z,11.40
2017-11-26T08:31:47.350Z,11.43
2017-11-26T08:34:16.447Z,9.93
2017-11-26T08:36:44.775Z,9.37
2017-11-26T08:39:13.087Z,8.97
2017-11-26T08:41:41.405Z,8.23
2017-11-26T08:44:09.714Z,9.83
2017-11-26T08:46:38.027Z,9.33
2017-11-26T08:49:06.349Z,9.90
2017-11-26T08:51:34.671Z,8.70
2017-11-26T08:54:02.983Z,9.70
2017-11-26T08:56:31.296Z,7.87
2017-11-26T08:58:59.605Z,8.73
2017-11-26T09:01:27.951Z,8.83
2017-11-26T09:03:56.283Z,8.60
2017-11-26T09:06:35.350Z,9.73
2017-11-26T09:09:03.672Z,9.13
2017-11-26T09:11:31.975Z,9.53
2017-11-26T09:14:00.290Z,9.43
2017-11-26T09:16:28.593Z,9.00
2017-11-26T09:18:56.911Z,10.10
2017-11-26T09:21:25.238Z,8.93
2017-11-26T09:23:53.541Z,8.90
2017-11-26T09:26:21.838Z,10.00
2017-11-26T09:28:50.914Z,9.20
2017-11-26T09:31:19.980Z,9.40
2017-11-26T09:33:48.286Z,10.00
2017-11-26T09:36:17.358Z,10.20
2017-11-26T09:38:45.663Z,9.33
2017-11-26T09:41:14.735Z,9.57
2017-11-26T09:43:43.115Z,9.97
2017-11-26T09:46:11.418Z,9.30
2017-11-26T09:48:40.502Z,8.43
2017-11-26T09:51:09.590Z,10.20
2017-11-26T09:53:37.903Z,9.00
2017-11-26T09:58:41.529Z,8.70
2017-11-26T10:01:09.846Z,7.20
2017-11-26T10:03:38.190Z,6.80
2017-11-26T10:06:06.492Z,4.90
2017-11-26T10:08:34.818Z,5.90
2017-11-26T10:11:03.890Z,6.33
2017-11-26T10:13:32.195Z,6.00
2017-11-26T10:16:01.267Z,5.17
2017-11-26T10:18:30.361Z,4.63
2017-11-26T10:20:58.707Z,5.10
2017-11-26T10:23:26.996Z,4.97
2017-11-26T10:25:55.302Z,4.90
2017-11-26T10:28:24.366Z,5.40
2017-11-26T10:30:52.686Z,5.73
2017-11-26T10:33:20.998Z,5.33
2017-11-26T10:35:49.335Z,5.70
2017-11-26T10:38:18.458Z,4.63
2017-11-26T10:40:47.499Z,5.30
2017-11-26T10:43:15.822Z,5.47
2017-11-26T10:45:44.117Z,5.43
2017-11-26T10:48:12.426Z,5.70
2017-11-26T10:50:40.726Z,4.80
2017-11-26T10:53:09.799Z,4.83
2017-11-26T10:55:38.102Z,4.63
2017-11-26T10:58:07.171Z,4.77
2017-11-26T11:00:35.494Z,5.43
2017-11-26T11:03:03.804Z,4.90
2017-11-26T11:05:32.099Z,4.50
2017-11-26T11:08:00.447Z,4.70
2017-11-26T11:10:28.754Z,5.30
2017-11-26T11:12:57.086Z,4.80
2017-11-26T11:15:25.378Z,4.00
2017-11-26T11:17:53.691Z,4.00
2017-11-26T11:20:21.998Z,3.87
2017-11-26T11:22:50.302Z,3.60
2017-11-26T11:25:19.935Z,3.20
2017-11-26T11:27:48.228Z,3.23
2017-11-26T11:30:16.566Z,3.27
2017-11-26T11:32:44.915Z,3.30
2017-11-26T11:35:13.222Z,4.07
2017-11-26T11:37:41.559Z,4.13
2017-11-26T11:40:10.634Z,3.63
2017-11-26T11:42:38.981Z,4.40
2017-11-26T11:45:07.290Z,4.10
2017-11-26T11:47:35.598Z,3.83
2017-11-26T11:50:04.760Z,3.17
2017-11-26T11:52:33.737Z,3.10
2017-11-26T11:55:02.197Z,3.30
2017-11-26T11:57:30.541Z,2.90
2017-11-26T11:59:59.656Z,2.70
2017-11-26T12:02:28.758Z,2.83
2017-11-26T12:04:57.134Z,2.50
2017-11-26T12:07:25.511Z,2.80
2017-11-26T12:09:53.993Z,2.90
2017-11-26T12:12:22.397Z,3.00
2017-11-26T12:14:50.849Z,2.70
2017-11-26T12:17:19.189Z,2.20
2017-11-26T12:19:47.531Z,3.47
2017-11-26T12:22:15.885Z,2.40
2017-11-26T12:24:44.258Z,2.10
2017-11-26T12:27:12.635Z,2.57
2017-11-26T12:29:41.115Z,2.40
2017-11-26T12:32:10.209Z,2.20
2017-11-26T12:34:38.600Z,2.23
2017-11-26T12:37:07.016Z,2.70
2017-11-26T12:39:35.343Z,2.23
2017-11-26T12:42:04.530Z,2.77
2017-11-26T12:44:33.735Z,2.60
2017-11-26T12:47:02.055Z,2.87
2017-11-26T12:49:30.409Z,2.40
2017-11-26T12:51:58.781Z,2.50
2017-11-26T12:54:27.189Z,3.07
2017-11-26T12:56:55.501Z,3.07
2017-11-26T12:59:23.839Z,2.30
2017-11-26T13:01:52.220Z,2.57
2017-11-26T13:04:20.549Z,2.60
2017-11-26T13:06:49.696Z,2.33
2017-11-26T13:09:18.072Z,2.27
2017-11-26T13:11:46.385Z,3.13
2017-11-26T13:14:14.817Z,2.37
2017-11-26T13:16:43.128Z,3.00
2017-11-26T13:19:11.460Z,2.97
2017-11-26T13:21:39.823Z,2.70
2017-11-26T13:24:08.891Z,3.20
2017-11-26T13:26:37.211Z,3.00
2017-11-26T13:29:05.512Z,2.70
2017-11-26T13:31:33.842Z,2.60
2017-11-26T13:34:02.943Z,2.40
2017-11-26T13:36:31.277Z,2.37
2017-11-26T13:38:59.592Z,1.97
2017-11-26T13:41:28.690Z,2.60
2017-11-26T13:43:57.763Z,2.27
2017-11-26T13:46:26.089Z,2.13
2017-11-26T13:48:54.431Z,3.20
2017-11-26T13:51:22.750Z,2.13
2017-11-26T13:53:51.059Z,2.70
2017-11-26T13:56:19.406Z,2.33
2017-11-26T13:58:47.714Z,2.63
2017-11-26T14:01:16.183Z,2.70
2017-11-26T14:03:44.530Z,2.57
2017-11-26T14:06:12.870Z,2.47
2017-11-26T14:08:41.187Z,2.30
2017-11-26T14:11:09.503Z,2.37
2017-11-26T14:13:37.843Z,2.43
2017-11-26T14:16:06.210Z,2.37
2017-11-26T14:18:35.286Z,2.50
2017-11-26T14:21:03.598Z,2.73
2017-11-26T14:23:31.902Z,2.67
2017-11-26T14:26:00.218Z,2.70
2017-11-26T14:28:29.295Z,3.13
2017-11-26T14:30:57.626Z,3.03
2017-11-26T14:33:26.003Z,2.83
2017-11-26T14:35:54.311Z,2.97
2017-11-26T14:38:22.643Z,2.90
2017-11-26T14:40:50.982Z,3.07
2017-11-26T14:43:19.312Z,3.17
2017-11-26T14:45:47.619Z,3.27
2017-11-26T14:48:15.920Z,2.90
2017-11-26T14:50:44.245Z,3.40
2017-11-26T14:53:12.543Z,2.80
2017-11-26T14:55:40.900Z,3.00
2017-11-26T14:58:09.235Z,3.20
2017-11-26T15:00:37.572Z,2.90
2017-11-26T15:03:05.884Z,2.70
2017-11-26T15:05:34.203Z,2.80
2017-11-26T15:08:02.547Z,3.57
2017-11-26T15:10:30.927Z,3.50
2017-11-26T15:12:59.254Z,4.43
2017-11-26T15:15:27.583Z,3.10
2017-11-26T15:17:56.383Z,3.73
2017-11-26T15:20:25.517Z,3.63
2017-11-26T15:22:53.839Z,3.90
2017-11-26T15:25:22.175Z,3.53
2017-11-26T15:27:50.495Z,3.50
2017-11-26T15:30:18.837Z,3.40
2017-11-26T15:32:47.181Z,3.00
2017-11-26T15:35:16.295Z,2.80
2017-11-26T15:37:44.647Z,3.63
2017-11-26T15:40:13.718Z,3.20
2017-11-26T15:42:42.048Z,3.30
2017-11-26T15:45:10.346Z,3.00
2017-11-26T15:47:38.712Z,3.53
2017-11-26T15:50:07.064Z,3.47
2017-11-26T15:52:35.382Z,3.13
2017-11-26T15:55:03.742Z,3.20
2017-11-26T15:57:32.039Z,3.60
2017-11-26T16:00:00.365Z,3.70
2017-11-26T16:02:29.486Z,3.53
2017-11-26T16:04:57.800Z,4.00
2017-11-26T16:07:26.116Z,3.77
2017-11-26T16:09:55.217Z,3.23
2017-11-26T16:12:24.311Z,2.63
2017-11-26T16:14:53.384Z,2.70
2017-11-26T16:17:21.714Z,3.40
2017-11-26T16:19:50.851Z,3.03
2017-11-26T16:22:19.151Z,3.80
2017-11-26T16:24:48.252Z,3.80
2017-11-26T16:27:17.318Z,4.03
2017-11-26T16:29:45.642Z,3.70
2017-11-26T16:32:14.114Z,3.80
2017-11-26T16:34:42.432Z,4.27
2017-11-26T16:37:11.057Z,4.40
2017-11-26T16:39:40.130Z,4.83
2017-11-26T16:42:08.478Z,4.83
2017-11-26T16:44:36.802Z,4.97
2017-11-26T16:47:05.121Z,4.50
2017-11-26T16:49:33.468Z,4.83
2017-11-26T16:52:02.612Z,4.23
2017-11-26T16:54:30.933Z,4.60
2017-11-26T16:56:59.239Z,5.40
2017-11-26T16:59:27.550Z,5.50
2017-11-26T17:01:55.858Z,3.90
2017-11-26T17:04:24.982Z,4.07
2017-11-26T17:06:53.302Z,4.63
2017-11-26T17:09:21.608Z,4.00
2017-11-26T17:11:49.934Z,3.70
2017-11-26T17:14:18.235Z,3.90
2017-11-26T17:16:46.559Z,3.53
2017-11-26T17:19:14.873Z,4.63
2017-11-26T17:21:43.182Z,4.37
2017-11-26T17:24:11.498Z,4.57
2017-11-26T17:26:39.823Z,3.97
2017-11-26T17:29:08.195Z,4.20
2017-11-26T17:31:36.547Z,4.70
2017-11-26T17:34:04.869Z,5.20
2017-11-26T17:36:33.204Z,4.13
2017-11-26T17:39:01.547Z,4.53
2017-11-26T17:41:30.645Z,4.37
2017-11-26T17:43:58.970Z,4.63
2017-11-26T17:46:27.286Z,4.40
2017-11-26T17:48:55.618Z,4.30
2017-11-26T17:51:23.997Z,3.90
2017-11-26T17:53:52.927Z,5.00
2017-11-26T17:56:21.241Z,3.97
2017-11-26T17:58:50.356Z,4.10
2017-11-26T18:01:18.671Z,4.80
2017-11-26T18:03:46.973Z,5.17
2017-11-26T18:06:15.307Z,3.93
2017-11-26T18:08:43.631Z,4.67
2017-11-26T18:11:12.716Z,4.00
2017-11-26T18:13:41.034Z,4.70
2017-11-26T18:16:10.154Z,4.53
2017-11-26T18:18:38.488Z,4.20
2017-11-26T18:21:07.576Z,4.97
2017-11-26T18:23:36.645Z,4.50
2017-11-26T18:26:04.981Z,5.40
2017-11-26T18:28:33.276Z,5.90
2017-11-26T18:31:01.610Z,6.80
2017-11-26T18:33:30.675Z,6.60
2017-11-26T18:35:59.039Z,5.90
2017-11-26T18:38:27.350Z,6.10
2017-11-26T18:40:55.652Z,7.40
2017-11-26T18:43:24.001Z,6.70
2017-11-26T18:45:52.296Z,7.00
2017-11-26T18:48:21.380Z,8.30
2017-11-26T18:50:50.471Z,8.60
2017-11-26T18:53:18.769Z,7.53
2017-11-26T18:55:47.107Z,7.53
2017-11-26T18:58:15.423Z,6.60
2017-11-26T19:00:44.523Z,7.20
2017-11-26T19:03:12.828Z,7.10
2017-11-26T19:05:41.142Z,8.27
2017-11-26T19:08:09.461Z,7.00
2017-11-26T19:10:37.758Z,7.90
2017-11-26T19:13:06.109Z,8.10
2017-11-26T19:15:34.475Z,8.20
2017-11-26T19:18:03.547Z,7.87
2017-11-26T19:20:31.886Z,9.03
2017-11-26T19:23:00.197Z,8.40
2017-11-26T19:25:28.535Z,9.03
2017-11-26T19:27:56.886Z,9.93
2017-11-26T19:30:25.979Z,9.20
2017-11-26T19:32:55.061Z,8.70
2017-11-26T19:35:24.137Z,8.50
2017-11-26T19:37:52.480Z,9.03
2017-11-26T19:40:20.774Z,8.67
2017-11-26T19:42:49.070Z,9.00
2017-11-26T19:45:17.378Z,9.83
2017-11-26T19:47:46.459Z,10.43
2017-11-26T19:50:15.551Z,9.60
2017-11-26T19:52:44.645Z,9.70
2017-11-26T19:55:12.961Z,9.70
2017-11-26T19:57:41.266Z,7.50
2017-11-26T20:00:09.563Z,8.43
2017-11-26T20:02:37.898Z,8.37
2017-11-26T20:05:06.240Z,9.40
2017-11-26T20:07:35.364Z,7.83
2017-11-26T20:10:03.730Z,8.00
2017-11-26T20:12:32.795Z,8.43
2017-11-26T20:15:01.132Z,7.20
2017-11-26T20:17:29.429Z,6.60
2017-11-26T20:19:57.734Z,6.67
2017-11-26T20:22:26.058Z,7.60
2017-11-26T20:24:54.374Z,7.07
2017-11-26T20:27:22.729Z,6.40
2017-11-26T20:29:51.024Z,6.87
2017-11-26T20:32:19.347Z,6.40
2017-11-26T20:34:48.405Z,6.80
2017-11-26T20:37:16.710Z,7.13
2017-11-26T20:39:45.833Z,7.80
2017-11-26T20:42:14.143Z,8.27
2017-11-26T20:44:42.457Z,7.80
2017-11-26T20:47:11.523Z,7.60
2017-11-26T20:49:39.854Z,7.63
2017-11-26T20:52:08.193Z,9.20
2017-11-26T20:54:36.499Z,9.10
2017-11-26T20:57:04.832Z,8.40
2017-11-26T20:59:33.154Z,7.87
2017-11-26T21:02:02.226Z,8.90
2017-11-26T21:04:30.520Z,9.23
2017-11-26T21:06:59.644Z,8.90
2017-11-26T21:09:27.950Z,9.20
2017-11-26T21:11:56.259Z,9.43
2017-11-26T21:14:25.360Z,9.90
2017-11-26T21:16:54.438Z,9.63
2017-11-26T21:19:22.796Z,8.13
2017-11-26T21:21:51.148Z,9.47
2017-11-26T21:24:19.456Z,9.67
2017-11-26T21:26:47.835Z,10.10
2017-11-26T21:29:16.143Z,8.77
2017-11-26T21:31:44.473Z,10.00
2017-11-26T21:34:12.783Z,11.13
2017-11-26T21:36:41.102Z,9.50
2017-11-26T21:39:09.410Z,10.43
2017-11-26T21:41:37.769Z,11.57
2017-11-26T21:44:06.086Z,11.90
2017-11-26T21:46:34.413Z,11.10
2017-11-26T21:49:02.745Z,11.10
2017-11-26T21:51:31.059Z,11.27
2017-11-26T21:53:59.390Z,11.60
2017-11-26T21:56:27.699Z,11.93
2017-11-26T21:58:56.807Z,11.37
2017-11-26T22:01:25.189Z,10.37
2017-11-26T22:03:53.490Z,11.50
2017-11-26T22:06:21.804Z,12.50
2017-11-26T22:08:50.143Z,13.70
2017-11-26T22:11:18.467Z,11.97
2017-11-26T22:13:46.787Z,13.47
2017-11-26T22:16:15.142Z,13.20
2017-11-26T22:18:44.216Z,13.60
2017-11-26T22:21:12.528Z,12.33
2017-11-26T22:23:40.846Z,12.67
2017-11-26T22:26:09.841Z,12.17
2017-11-26T22:28:38.239Z,12.10
2017-11-26T22:31:06.547Z,11.53
2017-11-26T22:33:35.638Z,11.73
2017-11-26T22:36:04.748Z,10.40
2017-11-26T22:38:33.086Z,10.30
2017-11-26T22:41:01.411Z,12.10
2017-11-26T22:43:29.730Z,12.60
2017-11-26T22:45:58.038Z,12.23
2017-11-26T22:48:27.187Z,13.17
2017-11-26T22:50:56.302Z,10.27
2017-11-26T22:53:24.631Z,11.53
2017-11-26T22:55:52.934Z,12.70
2017-11-26T22:58:21.246Z,10.80
2017-11-26T23:00:49.545Z,12.20
2017-11-26T23:03:19.448Z,12.77
2017-11-26T23:05:48.514Z,12.33
2017-11-26T23:08:16.856Z,11.10
2017-11-26T23:10:45.177Z,11.10
2017-11-26T23:13:13.492Z,10.67
2017-11-26T23:15:41.818Z,9.00
2017-11-26T23:18:10.133Z,10.07
2017-11-26T23:20:39.238Z,13.10
2017-11-26T23:23:08.298Z,9.77
2017-11-26T23:25:36.620Z,9.97
2017-11-26T23:28:04.944Z,10.23
2017-11-26T23:30:33.258Z,9.47
2017-11-26T23:33:02.338Z,10.53
2017-11-26T23:35:30.662Z,9.10
2017-11-26T23:37:58.978Z,11.07
2017-11-26T23:40:27.300Z,10.23
2017-11-26T23:42:55.635Z,11.57
2017-11-26T23:45:23.943Z,11.27
2017-11-26T23:47:53.002Z,10.53
2017-11-26T23:50:21.335Z,10.10
2017-11-26T23:52:49.665Z,10.50
2017-11-26T23:55:17.984Z,10.60
2017-11-26T23:57:46.309Z,10.57
